sensor_id;sensor_type;location;lat;lon;timestamp;temperature;humidity
7461;DHT22;6757;52.258;12.840;2023-06-22T00:01:18;18.70;99.90
7461;DHT22;6757;52.258;12.840;2023-06-22T00:03:45;18.60;99.90
7461;DHT22;6757;52.258;12.840;2023-06-22T00:06:13;18.60;99.90
7461;DHT22;6757;52.258;12.840;2023-06-22T00:08:40;18.60;99.90
7461;DHT22;6757;52.258;12.840;2023-06-22T00:11:07;18.50;99.90
7461;DHT22;6757;52.258;12.840;2023-06-22T00:13:34;18.50;99.90
7461;DHT22;6757;52.258;12.840;2023-06-22T00:16:01;18.50;99.90
7461;DHT22;6757;52.258;12.840;2023-06-22T00:18:29;18.50;99.90
7461;DHT22;6757;52.258;12.840;2023-06-22T00:20:56;18.50;99.90
7461;DHT22;6757;52.258;12.840;2023-06-22T00:23:25;18.40;99.90
7461;DHT22;6757;52.258;12.840;2023-06-22T00:25:53;18.50;99.90
7461;DHT22;6757;52.258;12.840;2023-06-22T00:28:19;18.40;99.90
7461;DHT22;6757;52.258;12.840;2023-06-22T00:30:48;18.40;99.90
7461;DHT22;6757;52.258;12.840;2023-06-22T00:33:15;18.40;99.90
7461;DHT22;6757;52.258;12.840;2023-06-22T00:35:42;18.40;99.90
7461;DHT22;6757;52.258;12.840;2023-06-22T00:38:09;18.40;99.90
7461;DHT22;6757;52.258;12.840;2023-06-22T00:40:37;18.40;99.90
7461;DHT22;6757;52.258;12.840;2023-06-22T00:43:05;18.40;99.90
7461;DHT22;6757;52.258;12.840;2023-06-22T00:45:32;18.40;99.90
7461;DHT22;6757;52.258;12.840;2023-06-22T00:47:59;18.40;99.90
7461;DHT22;6757;52.258;12.840;2023-06-22T00:50:29;18.40;99.90
7461;DHT22;6757;52.258;12.840;2023-06-22T00:53:00;18.40;99.90
7461;DHT22;6757;52.258;12.840;2023-06-22T00:55:29;18.40;99.90
7461;DHT22;6757;52.258;12.840;2023-06-22T00:57:58;18.40;99.90
7461;DHT22;6757;52.258;12.840;2023-06-22T01:00:25;18.40;99.90
7461;DHT22;6757;52.258;12.840;2023-06-22T01:02:52;18.40;99.90
7461;DHT22;6757;52.258;12.840;2023-06-22T01:05:21;18.40;99.90
7461;DHT22;6757;52.258;12.840;2023-06-22T01:08:06;18.40;99.90
7461;DHT22;6757;52.258;12.840;2023-06-22T01:10:43;18.40;99.90
7461;DHT22;6757;52.258;12.840;2023-06-22T01:13:18;18.40;99.90
7461;DHT22;6757;52.258;12.840;2023-06-22T01:15:53;18.40;99.90
7461;DHT22;6757;52.258;12.840;2023-06-22T01:18:23;18.30;99.90
7461;DHT22;6757;52.258;12.840;2023-06-22T01:20:54;18.30;99.90
7461;DHT22;6757;52.258;12.840;2023-06-22T01:23:29;18.30;99.90
7461;DHT22;6757;52.258;12.840;2023-06-22T01:26:06;18.40;99.90
7461;DHT22;6757;52.258;12.840;2023-06-22T01:28:46;18.30;99.90
7461;DHT22;6757;52.258;12.840;2023-06-22T01:31:16;18.30;99.90
7461;DHT22;6757;52.258;12.840;2023-06-22T01:33:47;18.30;99.90
7461;DHT22;6757;52.258;12.840;2023-06-22T01:36:17;18.30;99.90
7461;DHT22;6757;52.258;12.840;2023-06-22T01:38:45;18.30;99.90
7461;DHT22;6757;52.258;12.840;2023-06-22T01:41:14;18.30;99.90
7461;DHT22;6757;52.258;12.840;2023-06-22T01:43:45;18.30;99.90
7461;DHT22;6757;52.258;12.840;2023-06-22T01:46:13;18.30;99.90
7461;DHT22;6757;52.258;12.840;2023-06-22T01:48:40;18.30;99.90
7461;DHT22;6757;52.258;12.840;2023-06-22T01:51:08;18.30;99.90
7461;DHT22;6757;52.258;12.840;2023-06-22T01:53:35;18.30;99.90
7461;DHT22;6757;52.258;12.840;2023-06-22T01:56:02;18.30;99.90
7461;DHT22;6757;52.258;12.840;2023-06-22T01:58:30;18.30;99.90
7461;DHT22;6757;52.258;12.840;2023-06-22T02:01:09;18.30;99.90
7461;DHT22;6757;52.258;12.840;2023-06-22T02:03:40;18.30;99.90
7461;DHT22;6757;52.258;12.840;2023-06-22T02:06:11;18.30;99.90
7461;DHT22;6757;52.258;12.840;2023-06-22T02:08:49;18.40;99.90
7461;DHT22;6757;52.258;12.840;2023-06-22T02:11:21;18.40;99.90
7461;DHT22;6757;52.258;12.840;2023-06-22T02:13:48;18.40;99.90
7461;DHT22;6757;52.258;12.840;2023-06-22T02:16:18;18.40;99.90
7461;DHT22;6757;52.258;12.840;2023-06-22T02:18:49;18.40;99.90
7461;DHT22;6757;52.258;12.840;2023-06-22T02:21:17;18.40;99.90
7461;DHT22;6757;52.258;12.840;2023-06-22T02:23:44;18.40;99.90
7461;DHT22;6757;52.258;12.840;2023-06-22T02:26:11;18.40;99.90
7461;DHT22;6757;52.258;12.840;2023-06-22T02:28:38;18.40;99.90
7461;DHT22;6757;52.258;12.840;2023-06-22T02:31:05;18.40;99.90
7461;DHT22;6757;52.258;12.840;2023-06-22T02:33:34;18.50;99.90
7461;DHT22;6757;52.258;12.840;2023-06-22T02:36:00;18.50;99.90
7461;DHT22;6757;52.258;12.840;2023-06-22T02:38:30;18.50;99.90
7461;DHT22;6757;52.258;12.840;2023-06-22T02:41:00;18.50;99.90
7461;DHT22;6757;52.258;12.840;2023-06-22T02:43:27;18.50;99.90
7461;DHT22;6757;52.258;12.840;2023-06-22T02:45:54;18.50;99.90
7461;DHT22;6757;52.258;12.840;2023-06-22T02:48:21;18.50;99.90
7461;DHT22;6757;52.258;12.840;2023-06-22T02:50:49;18.50;99.90
7461;DHT22;6757;52.258;12.840;2023-06-22T02:53:16;18.50;99.90
7461;DHT22;6757;52.258;12.840;2023-06-22T02:55:43;18.50;99.90
7461;DHT22;6757;52.258;12.840;2023-06-22T02:58:10;18.50;99.90
7461;DHT22;6757;52.258;12.840;2023-06-22T03:00:37;18.50;99.90
7461;DHT22;6757;52.258;12.840;2023-06-22T03:03:05;18.50;99.90
7461;DHT22;6757;52.258;12.840;2023-06-22T03:05:31;18.50;99.90
7461;DHT22;6757;52.258;12.840;2023-06-22T03:08:02;18.50;99.90
7461;DHT22;6757;52.258;12.840;2023-06-22T03:10:29;18.50;99.90
7461;DHT22;6757;52.258;12.840;2023-06-22T03:12:56;18.50;99.90
7461;DHT22;6757;52.258;12.840;2023-06-22T03:15:22;18.50;99.90
7461;DHT22;6757;52.258;12.840;2023-06-22T03:17:51;18.50;99.90
7461;DHT22;6757;52.258;12.840;2023-06-22T03:20:17;18.50;99.90
7461;DHT22;6757;52.258;12.840;2023-06-22T03:22:44;18.50;99.90
7461;DHT22;6757;52.258;12.840;2023-06-22T03:25:13;18.50;99.90
7461;DHT22;6757;52.258;12.840;2023-06-22T03:27:40;18.50;99.90
7461;DHT22;6757;52.258;12.840;2023-06-22T03:30:09;18.50;99.90
7461;DHT22;6757;52.258;12.840;2023-06-22T03:32:37;18.50;99.90
7461;DHT22;6757;52.258;12.840;2023-06-22T03:35:05;18.50;99.90
7461;DHT22;6757;52.258;12.840;2023-06-22T03:37:33;18.50;99.90
7461;DHT22;6757;52.258;12.840;2023-06-22T03:40:00;18.50;99.90
7461;DHT22;6757;52.258;12.840;2023-06-22T03:42:34;18.50;99.90
7461;DHT22;6757;52.258;12.840;2023-06-22T03:45:02;18.50;99.90
7461;DHT22;6757;52.258;12.840;2023-06-22T03:47:29;18.60;99.90
7461;DHT22;6757;52.258;12.840;2023-06-22T03:49:56;18.60;99.90
7461;DHT22;6757;52.258;12.840;2023-06-22T03:52:23;18.60;99.90
7461;DHT22;6757;52.258;12.840;2023-06-22T03:54:50;18.70;99.90
7461;DHT22;6757;52.258;12.840;2023-06-22T03:57:17;18.70;99.90
7461;DHT22;6757;52.258;12.840;2023-06-22T03:59:46;18.70;99.90
7461;DHT22;6757;52.258;12.840;2023-06-22T04:02:13;18.80;99.90
7461;DHT22;6757;52.258;12.840;2023-06-22T04:04:40;18.80;99.90
7461;DHT22;6757;52.258;12.840;2023-06-22T04:07:07;18.80;99.90
7461;DHT22;6757;52.258;12.840;2023-06-22T04:09:34;18.90;99.90
7461;DHT22;6757;52.258;12.840;2023-06-22T04:12:01;19.00;99.90
7461;DHT22;6757;52.258;12.840;2023-06-22T04:14:28;19.00;99.90
7461;DHT22;6757;52.258;12.840;2023-06-22T04:16:57;19.10;99.90
7461;DHT22;6757;52.258;12.840;2023-06-22T04:19:24;19.10;99.90
7461;DHT22;6757;52.258;12.840;2023-06-22T04:21:51;19.20;99.90
7461;DHT22;6757;52.258;12.840;2023-06-22T04:24:18;19.30;99.90
7461;DHT22;6757;52.258;12.840;2023-06-22T04:26:45;19.30;99.90
7461;DHT22;6757;52.258;12.840;2023-06-22T04:29:12;19.40;99.90
7461;DHT22;6757;52.258;12.840;2023-06-22T04:31:40;19.50;99.90
7461;DHT22;6757;52.258;12.840;2023-06-22T04:34:08;19.50;99.90
7461;DHT22;6757;52.258;12.840;2023-06-22T04:36:36;19.60;99.90
7461;DHT22;6757;52.258;12.840;2023-06-22T04:39:05;19.70;99.90
7461;DHT22;6757;52.258;12.840;2023-06-22T04:41:35;19.80;99.90
7461;DHT22;6757;52.258;12.840;2023-06-22T04:44:09;19.80;99.90
7461;DHT22;6757;52.258;12.840;2023-06-22T04:46:36;19.90;99.90
7461;DHT22;6757;52.258;12.840;2023-06-22T04:49:05;19.90;99.90
7461;DHT22;6757;52.258;12.840;2023-06-22T04:51:37;20.00;99.90
7461;DHT22;6757;52.258;12.840;2023-06-22T04:54:06;20.00;99.90
7461;DHT22;6757;52.258;12.840;2023-06-22T04:56:33;20.00;99.90
7461;DHT22;6757;52.258;12.840;2023-06-22T04:59:00;20.10;99.90
7461;DHT22;6757;52.258;12.840;2023-06-22T05:01:29;20.10;99.90
7461;DHT22;6757;52.258;12.840;2023-06-22T05:03:57;20.10;99.90
7461;DHT22;6757;52.258;12.840;2023-06-22T05:06:26;20.20;99.90
7461;DHT22;6757;52.258;12.840;2023-06-22T05:08:56;20.20;99.90
7461;DHT22;6757;52.258;12.840;2023-06-22T05:11:24;20.30;99.90
7461;DHT22;6757;52.258;12.840;2023-06-22T05:13:51;20.60;99.90
7461;DHT22;6757;52.258;12.840;2023-06-22T05:16:19;20.30;99.90
7461;DHT22;6757;52.258;12.840;2023-06-22T05:18:50;20.40;99.90
7461;DHT22;6757;52.258;12.840;2023-06-22T05:21:20;20.40;99.90
7461;DHT22;6757;52.258;12.840;2023-06-22T05:23:48;20.50;99.90
7461;DHT22;6757;52.258;12.840;2023-06-22T05:26:17;20.60;99.90
7461;DHT22;6757;52.258;12.840;2023-06-22T05:28:44;20.60;99.90
7461;DHT22;6757;52.258;12.840;2023-06-22T05:31:12;20.70;99.90
7461;DHT22;6757;52.258;12.840;2023-06-22T05:33:40;20.70;99.90
7461;DHT22;6757;52.258;12.840;2023-06-22T05:36:07;20.90;99.90
7461;DHT22;6757;52.258;12.840;2023-06-22T05:38:35;21.00;99.90
7461;DHT22;6757;52.258;12.840;2023-06-22T05:41:02;21.00;99.90
7461;DHT22;6757;52.258;12.840;2023-06-22T05:43:31;21.10;99.90
7461;DHT22;6757;52.258;12.840;2023-06-22T05:45:59;21.20;99.90
7461;DHT22;6757;52.258;12.840;2023-06-22T05:48:26;21.30;99.90
7461;DHT22;6757;52.258;12.840;2023-06-22T05:50:54;21.50;99.90
7461;DHT22;6757;52.258;12.840;2023-06-22T05:53:21;21.60;99.90
7461;DHT22;6757;52.258;12.840;2023-06-22T05:55:48;21.70;99.90
7461;DHT22;6757;52.258;12.840;2023-06-22T05:58:15;21.80;99.90
7461;DHT22;6757;52.258;12.840;2023-06-22T06:00:43;21.80;99.90
7461;DHT22;6757;52.258;12.840;2023-06-22T06:03:11;21.90;99.90
7461;DHT22;6757;52.258;12.840;2023-06-22T06:05:42;22.00;99.90
7461;DHT22;6757;52.258;12.840;2023-06-22T06:08:10;22.00;99.90
7461;DHT22;6757;52.258;12.840;2023-06-22T06:10:38;22.10;99.90
7461;DHT22;6757;52.258;12.840;2023-06-22T06:13:05;22.10;99.90
7461;DHT22;6757;52.258;12.840;2023-06-22T06:15:33;22.10;99.90
7461;DHT22;6757;52.258;12.840;2023-06-22T06:18:02;22.20;99.90
7461;DHT22;6757;52.258;12.840;2023-06-22T06:20:30;22.30;99.90
7461;DHT22;6757;52.258;12.840;2023-06-22T06:22:58;22.30;99.90
7461;DHT22;6757;52.258;12.840;2023-06-22T06:25:25;22.30;99.90
7461;DHT22;6757;52.258;12.840;2023-06-22T06:27:52;22.30;99.90
7461;DHT22;6757;52.258;12.840;2023-06-22T06:30:20;22.40;99.90
7461;DHT22;6757;52.258;12.840;2023-06-22T06:32:48;22.40;99.90
7461;DHT22;6757;52.258;12.840;2023-06-22T06:35:17;22.40;99.90
7461;DHT22;6757;52.258;12.840;2023-06-22T06:37:46;22.50;99.90
7461;DHT22;6757;52.258;12.840;2023-06-22T06:40:14;22.60;99.90
7461;DHT22;6757;52.258;12.840;2023-06-22T06:42:43;22.70;99.90
7461;DHT22;6757;52.258;12.840;2023-06-22T06:48:52;22.80;99.90
7461;DHT22;6757;52.258;12.840;2023-06-22T06:51:21;23.00;99.90
7461;DHT22;6757;52.258;12.840;2023-06-22T06:53:50;23.10;99.90
7461;DHT22;6757;52.258;12.840;2023-06-22T06:56:17;23.20;99.90
7461;DHT22;6757;52.258;12.840;2023-06-22T06:58:44;23.30;99.90
7461;DHT22;6757;52.258;12.840;2023-06-22T07:01:11;23.40;99.90
7461;DHT22;6757;52.258;12.840;2023-06-22T07:03:38;23.50;99.90
7461;DHT22;6757;52.258;12.840;2023-06-22T07:06:05;23.60;99.90
7461;DHT22;6757;52.258;12.840;2023-06-22T07:08:33;23.70;99.90
7461;DHT22;6757;52.258;12.840;2023-06-22T07:11:02;23.70;99.90
7461;DHT22;6757;52.258;12.840;2023-06-22T07:13:29;23.90;99.90
7461;DHT22;6757;52.258;12.840;2023-06-22T07:15:56;23.90;99.90
7461;DHT22;6757;52.258;12.840;2023-06-22T07:18:23;24.00;99.90
7461;DHT22;6757;52.258;12.840;2023-06-22T07:20:51;24.00;99.90
7461;DHT22;6757;52.258;12.840;2023-06-22T07:23:18;24.10;99.90
7461;DHT22;6757;52.258;12.840;2023-06-22T07:25:46;24.20;99.90
7461;DHT22;6757;52.258;12.840;2023-06-22T07:28:14;24.20;99.90
7461;DHT22;6757;52.258;12.840;2023-06-22T07:30:41;24.20;99.90
7461;DHT22;6757;52.258;12.840;2023-06-22T07:33:08;24.30;99.90
7461;DHT22;6757;52.258;12.840;2023-06-22T07:35:35;24.40;99.90
7461;DHT22;6757;52.258;12.840;2023-06-22T07:38:02;24.40;99.90
7461;DHT22;6757;52.258;12.840;2023-06-22T07:40:29;24.40;99.90
7461;DHT22;6757;52.258;12.840;2023-06-22T07:42:57;24.50;99.90
7461;DHT22;6757;52.258;12.840;2023-06-22T07:45:24;24.60;99.90
7461;DHT22;6757;52.258;12.840;2023-06-22T07:47:51;24.60;99.90
7461;DHT22;6757;52.258;12.840;2023-06-22T07:50:18;24.70;99.90
7461;DHT22;6757;52.258;12.840;2023-06-22T07:52:45;24.80;99.90
7461;DHT22;6757;52.258;12.840;2023-06-22T07:55:13;24.80;99.90
7461;DHT22;6757;52.258;12.840;2023-06-22T07:57:40;24.90;99.90
7461;DHT22;6757;52.258;12.840;2023-06-22T08:00:10;24.90;99.90
7461;DHT22;6757;52.258;12.840;2023-06-22T08:02:40;25.00;99.90
7461;DHT22;6757;52.258;12.840;2023-06-22T08:05:08;25.00;99.90
7461;DHT22;6757;52.258;12.840;2023-06-22T08:07:36;25.00;99.90
7461;DHT22;6757;52.258;12.840;2023-06-22T08:10:05;25.10;99.90
7461;DHT22;6757;52.258;12.840;2023-06-22T08:12:32;25.20;99.90
7461;DHT22;6757;52.258;12.840;2023-06-22T08:14:59;25.20;99.90
7461;DHT22;6757;52.258;12.840;2023-06-22T08:17:27;25.20;99.90
7461;DHT22;6757;52.258;12.840;2023-06-22T08:19:54;25.30;99.90
7461;DHT22;6757;52.258;12.840;2023-06-22T08:22:21;25.30;99.90
7461;DHT22;6757;52.258;12.840;2023-06-22T08:24:48;25.30;99.90
7461;DHT22;6757;52.258;12.840;2023-06-22T08:27:15;25.30;99.90
7461;DHT22;6757;52.258;12.840;2023-06-22T08:29:43;25.40;99.90
7461;DHT22;6757;52.258;12.840;2023-06-22T08:32:11;25.40;99.90
7461;DHT22;6757;52.258;12.840;2023-06-22T08:34:39;25.50;99.90
7461;DHT22;6757;52.258;12.840;2023-06-22T08:37:07;25.50;99.90
7461;DHT22;6757;52.258;12.840;2023-06-22T08:39:34;25.60;99.90
7461;DHT22;6757;52.258;12.840;2023-06-22T08:42:01;25.60;99.90
7461;DHT22;6757;52.258;12.840;2023-06-22T08:44:28;25.70;99.90
7461;DHT22;6757;52.258;12.840;2023-06-22T08:46:55;25.70;99.90
7461;DHT22;6757;52.258;12.840;2023-06-22T08:49:22;25.80;99.90
7461;DHT22;6757;52.258;12.840;2023-06-22T08:51:50;25.70;99.90
7461;DHT22;6757;52.258;12.840;2023-06-22T08:54:19;25.90;99.90
7461;DHT22;6757;52.258;12.840;2023-06-22T08:56:46;25.60;99.90
7461;DHT22;6757;52.258;12.840;2023-06-22T08:59:13;25.70;99.90
7461;DHT22;6757;52.258;12.840;2023-06-22T09:01:40;25.60;99.90
7461;DHT22;6757;52.258;12.840;2023-06-22T09:04:11;25.50;99.90
7461;DHT22;6757;52.258;12.840;2023-06-22T09:06:37;25.40;99.90
7461;DHT22;6757;52.258;12.840;2023-06-22T09:09:12;25.50;99.90
7461;DHT22;6757;52.258;12.840;2023-06-22T09:11:39;25.50;99.90
7461;DHT22;6757;52.258;12.840;2023-06-22T09:14:06;25.50;99.90
7461;DHT22;6757;52.258;12.840;2023-06-22T09:16:34;25.60;99.90
7461;DHT22;6757;52.258;12.840;2023-06-22T09:19:01;25.60;99.90
7461;DHT22;6757;52.258;12.840;2023-06-22T09:21:28;25.60;99.90
7461;DHT22;6757;52.258;12.840;2023-06-22T09:23:56;25.60;99.90
7461;DHT22;6757;52.258;12.840;2023-06-22T09:26:24;25.60;99.90
7461;DHT22;6757;52.258;12.840;2023-06-22T09:28:51;25.70;99.90
7461;DHT22;6757;52.258;12.840;2023-06-22T09:31:18;25.70;99.90
7461;DHT22;6757;52.258;12.840;2023-06-22T09:33:51;25.80;99.90
7461;DHT22;6757;52.258;12.840;2023-06-22T09:36:18;25.90;99.90
7461;DHT22;6757;52.258;12.840;2023-06-22T09:38:45;25.90;99.90
7461;DHT22;6757;52.258;12.840;2023-06-22T09:41:12;25.90;99.90
7461;DHT22;6757;52.258;12.840;2023-06-22T09:43:40;26.00;99.90
7461;DHT22;6757;52.258;12.840;2023-06-22T09:46:07;26.00;99.90
7461;DHT22;6757;52.258;12.840;2023-06-22T09:48:35;26.10;99.90
7461;DHT22;6757;52.258;12.840;2023-06-22T09:51:02;26.20;99.90
7461;DHT22;6757;52.258;12.840;2023-06-22T09:53:29;26.30;99.90
7461;DHT22;6757;52.258;12.840;2023-06-22T09:55:55;26.30;99.90
7461;DHT22;6757;52.258;12.840;2023-06-22T09:58:22;26.40;99.90
7461;DHT22;6757;52.258;12.840;2023-06-22T10:00:51;26.40;99.90
7461;DHT22;6757;52.258;12.840;2023-06-22T10:03:18;26.50;99.90
7461;DHT22;6757;52.258;12.840;2023-06-22T10:05:45;26.50;99.90
7461;DHT22;6757;52.258;12.840;2023-06-22T10:08:12;26.50;99.90
7461;DHT22;6757;52.258;12.840;2023-06-22T10:10:39;26.40;99.90
7461;DHT22;6757;52.258;12.840;2023-06-22T10:13:08;26.40;99.90
7461;DHT22;6757;52.258;12.840;2023-06-22T10:15:37;26.40;99.90
7461;DHT22;6757;52.258;12.840;2023-06-22T10:18:06;26.60;99.90
7461;DHT22;6757;52.258;12.840;2023-06-22T10:20:33;26.70;99.90
7461;DHT22;6757;52.258;12.840;2023-06-22T10:23:00;26.70;99.90
7461;DHT22;6757;52.258;12.840;2023-06-22T10:25:27;26.90;99.90
7461;DHT22;6757;52.258;12.840;2023-06-22T10:27:54;27.10;99.90
7461;DHT22;6757;52.258;12.840;2023-06-22T10:30:20;27.20;99.90
7461;DHT22;6757;52.258;12.840;2023-06-22T10:32:47;27.30;99.90
7461;DHT22;6757;52.258;12.840;2023-06-22T10:35:16;27.50;99.90
7461;DHT22;6757;52.258;12.840;2023-06-22T10:37:43;27.60;99.90
7461;DHT22;6757;52.258;12.840;2023-06-22T10:40:12;27.70;99.90
7461;DHT22;6757;52.258;12.840;2023-06-22T10:42:40;27.80;99.90
7461;DHT22;6757;52.258;12.840;2023-06-22T10:45:08;28.00;99.90
7461;DHT22;6757;52.258;12.840;2023-06-22T10:47:35;28.00;99.90
7461;DHT22;6757;52.258;12.840;2023-06-22T10:50:04;28.10;99.90
7461;DHT22;6757;52.258;12.840;2023-06-22T10:52:33;28.20;99.90
7461;DHT22;6757;52.258;12.840;2023-06-22T10:55:00;28.40;99.90
7461;DHT22;6757;52.258;12.840;2023-06-22T10:57:27;28.50;99.90
7461;DHT22;6757;52.258;12.840;2023-06-22T10:59:55;28.70;99.90
7461;DHT22;6757;52.258;12.840;2023-06-22T11:02:22;28.80;99.90
7461;DHT22;6757;52.258;12.840;2023-06-22T11:04:50;29.00;99.90
7461;DHT22;6757;52.258;12.840;2023-06-22T11:07:17;29.10;99.90
7461;DHT22;6757;52.258;12.840;2023-06-22T11:09:45;29.20;99.90
7461;DHT22;6757;52.258;12.840;2023-06-22T11:12:12;29.40;99.90
7461;DHT22;6757;52.258;12.840;2023-06-22T11:14:39;29.50;99.90
7461;DHT22;6757;52.258;12.840;2023-06-22T11:17:06;29.60;99.90
7461;DHT22;6757;52.258;12.840;2023-06-22T11:19:33;29.80;99.90
7461;DHT22;6757;52.258;12.840;2023-06-22T11:22:00;29.90;99.90
7461;DHT22;6757;52.258;12.840;2023-06-22T11:24:27;30.00;99.90
7461;DHT22;6757;52.258;12.840;2023-06-22T11:26:55;30.10;99.90
7461;DHT22;6757;52.258;12.840;2023-06-22T11:29:22;30.10;99.90
7461;DHT22;6757;52.258;12.840;2023-06-22T11:31:49;30.20;99.90
7461;DHT22;6757;52.258;12.840;2023-06-22T11:34:17;30.30;99.90
7461;DHT22;6757;52.258;12.840;2023-06-22T11:36:46;30.30;99.20
7461;DHT22;6757;52.258;12.840;2023-06-22T11:39:13;30.40;98.70
7461;DHT22;6757;52.258;12.840;2023-06-22T11:41:40;30.40;98.10
7461;DHT22;6757;52.258;12.840;2023-06-22T11:44:09;30.60;97.40
7461;DHT22;6757;52.258;12.840;2023-06-22T11:46:36;30.60;96.60
7461;DHT22;6757;52.258;12.840;2023-06-22T11:49:03;30.80;95.90
7461;DHT22;6757;52.258;12.840;2023-06-22T11:51:30;31.00;95.00
7461;DHT22;6757;52.258;12.840;2023-06-22T11:53:57;31.20;94.10
7461;DHT22;6757;52.258;12.840;2023-06-22T11:56:25;31.50;93.20
7461;DHT22;6757;52.258;12.840;2023-06-22T11:58:53;31.80;91.40
7461;DHT22;6757;52.258;12.840;2023-06-22T12:01:22;32.00;90.30
7461;DHT22;6757;52.258;12.840;2023-06-22T12:03:49;32.30;89.20
7461;DHT22;6757;52.258;12.840;2023-06-22T12:06:17;32.60;87.60
7461;DHT22;6757;52.258;12.840;2023-06-22T12:08:43;32.80;86.50
7461;DHT22;6757;52.258;12.840;2023-06-22T12:11:10;33.10;84.40
7461;DHT22;6757;52.258;12.840;2023-06-22T12:13:37;33.10;82.50
7461;DHT22;6757;52.258;12.840;2023-06-22T12:16:04;33.00;81.50
7461;DHT22;6757;52.258;12.840;2023-06-22T12:18:33;33.00;81.00
7461;DHT22;6757;52.258;12.840;2023-06-22T12:21:00;32.90;80.60
7461;DHT22;6757;52.258;12.840;2023-06-22T12:23:27;33.20;80.30
7461;DHT22;6757;52.258;12.840;2023-06-22T12:25:53;33.40;79.30
7461;DHT22;6757;52.258;12.840;2023-06-22T12:28:20;33.90;77.90
7461;DHT22;6757;52.258;12.840;2023-06-22T12:30:49;34.40;76.20
7461;DHT22;6757;52.258;12.840;2023-06-22T12:33:16;34.90;74.70
7461;DHT22;6757;52.258;12.840;2023-06-22T12:35:44;35.30;73.00
7461;DHT22;6757;52.258;12.840;2023-06-22T12:38:14;35.80;71.60
7461;DHT22;6757;52.258;12.840;2023-06-22T12:40:41;36.10;69.90
7461;DHT22;6757;52.258;12.840;2023-06-22T12:43:08;36.60;68.70
7461;DHT22;6757;52.258;12.840;2023-06-22T12:45:35;36.90;67.30
7461;DHT22;6757;52.258;12.840;2023-06-22T12:48:02;37.30;66.00
7461;DHT22;6757;52.258;12.840;2023-06-22T12:50:29;37.80;64.70
7461;DHT22;6757;52.258;12.840;2023-06-22T12:52:57;38.10;63.80
7461;DHT22;6757;52.258;12.840;2023-06-22T12:55:24;38.60;62.90
7461;DHT22;6757;52.258;12.840;2023-06-22T12:57:51;38.70;61.50
7461;DHT22;6757;52.258;12.840;2023-06-22T13:00:18;38.70;60.70
7461;DHT22;6757;52.258;12.840;2023-06-22T13:02:45;38.60;60.60
7461;DHT22;6757;52.258;12.840;2023-06-22T13:05:12;38.70;60.30
7461;DHT22;6757;52.258;12.840;2023-06-22T13:07:39;38.90;59.20
7461;DHT22;6757;52.258;12.840;2023-06-22T13:10:09;39.00;58.20
7461;DHT22;6757;52.258;12.840;2023-06-22T13:12:36;39.30;57.70
7461;DHT22;6757;52.258;12.840;2023-06-22T13:15:03;39.80;57.30
7461;DHT22;6757;52.258;12.840;2023-06-22T13:17:31;40.10;56.60
7461;DHT22;6757;52.258;12.840;2023-06-22T13:19:58;40.40;55.60
7461;DHT22;6757;52.258;12.840;2023-06-22T13:22:30;40.70;54.50
7461;DHT22;6757;52.258;12.840;2023-06-22T13:24:58;40.90;53.70
7461;DHT22;6757;52.258;12.840;2023-06-22T13:27:27;41.00;53.30
7461;DHT22;6757;52.258;12.840;2023-06-22T13:29:54;41.20;53.00
7461;DHT22;6757;52.258;12.840;2023-06-22T13:32:21;41.30;52.40
7461;DHT22;6757;52.258;12.840;2023-06-22T13:34:48;41.60;52.00
7461;DHT22;6757;52.258;12.840;2023-06-22T13:37:15;41.70;51.60
7461;DHT22;6757;52.258;12.840;2023-06-22T13:39:41;41.80;51.30
7461;DHT22;6757;52.258;12.840;2023-06-22T13:42:08;41.90;50.70
7461;DHT22;6757;52.258;12.840;2023-06-22T13:44:37;42.00;50.30
7461;DHT22;6757;52.258;12.840;2023-06-22T13:47:04;41.90;49.70
7461;DHT22;6757;52.258;12.840;2023-06-22T13:49:32;41.90;49.50
7461;DHT22;6757;52.258;12.840;2023-06-22T13:51:59;41.90;49.40
7461;DHT22;6757;52.258;12.840;2023-06-22T13:54:26;41.90;49.30
7461;DHT22;6757;52.258;12.840;2023-06-22T13:56:53;41.90;49.10
7461;DHT22;6757;52.258;12.840;2023-06-22T13:59:20;41.90;48.80
7461;DHT22;6757;52.258;12.840;2023-06-22T14:01:48;41.80;48.50
7461;DHT22;6757;52.258;12.840;2023-06-22T14:04:15;41.70;48.40
7461;DHT22;6757;52.258;12.840;2023-06-22T14:06:42;41.80;48.50
7461;DHT22;6757;52.258;12.840;2023-06-22T14:09:09;41.70;48.30
7461;DHT22;6757;52.258;12.840;2023-06-22T14:11:36;41.70;48.20
7461;DHT22;6757;52.258;12.840;2023-06-22T14:14:03;41.90;48.20
7461;DHT22;6757;52.258;12.840;2023-06-22T14:16:30;41.90;48.10
7461;DHT22;6757;52.258;12.840;2023-06-22T14:18:58;42.00;48.10
7461;DHT22;6757;52.258;12.840;2023-06-22T14:21:26;42.00;47.90
7461;DHT22;6757;52.258;12.840;2023-06-22T14:23:53;42.00;47.60
7461;DHT22;6757;52.258;12.840;2023-06-22T14:26:19;41.90;47.30
7461;DHT22;6757;52.258;12.840;2023-06-22T14:28:48;41.80;47.30
7461;DHT22;6757;52.258;12.840;2023-06-22T14:31:16;41.90;47.60
7461;DHT22;6757;52.258;12.840;2023-06-22T14:33:46;41.70;47.40
7461;DHT22;6757;52.258;12.840;2023-06-22T14:36:15;41.50;47.20
7461;DHT22;6757;52.258;12.840;2023-06-22T14:38:43;41.60;47.20
7461;DHT22;6757;52.258;12.840;2023-06-22T14:41:11;41.50;47.00
7461;DHT22;6757;52.258;12.840;2023-06-22T14:43:43;41.30;46.90
7461;DHT22;6757;52.258;12.840;2023-06-22T14:46:12;41.50;47.00
7461;DHT22;6757;52.258;12.840;2023-06-22T14:48:39;41.50;46.80
7461;DHT22;6757;52.258;12.840;2023-06-22T14:51:06;41.50;46.80
7461;DHT22;6757;52.258;12.840;2023-06-22T14:53:35;41.50;46.70
7461;DHT22;6757;52.258;12.840;2023-06-22T14:56:03;41.50;46.60
7461;DHT22;6757;52.258;12.840;2023-06-22T14:58:30;41.50;46.60
7461;DHT22;6757;52.258;12.840;2023-06-22T15:00:59;41.40;46.50
7461;DHT22;6757;52.258;12.840;2023-06-22T15:03:26;41.30;46.30
7461;DHT22;6757;52.258;12.840;2023-06-22T15:05:54;41.20;46.20
7461;DHT22;6757;52.258;12.840;2023-06-22T15:08:22;41.10;46.30
7461;DHT22;6757;52.258;12.840;2023-06-22T15:10:50;41.10;46.40
7461;DHT22;6757;52.258;12.840;2023-06-22T15:13:17;40.80;46.30
7461;DHT22;6757;52.258;12.840;2023-06-22T15:15:46;40.40;46.50
7461;DHT22;6757;52.258;12.840;2023-06-22T15:18:13;39.90;46.90
7461;DHT22;6757;52.258;12.840;2023-06-22T15:20:40;39.30;47.40
7461;DHT22;6757;52.258;12.840;2023-06-22T15:23:10;38.80;48.10
7461;DHT22;6757;52.258;12.840;2023-06-22T15:25:37;38.30;48.60
7461;DHT22;6757;52.258;12.840;2023-06-22T15:28:05;38.00;49.10
7461;DHT22;6757;52.258;12.840;2023-06-22T15:30:32;37.60;49.50
7461;DHT22;6757;52.258;12.840;2023-06-22T15:33:00;37.20;50.00
7461;DHT22;6757;52.258;12.840;2023-06-22T15:35:27;37.20;50.50
7461;DHT22;6757;52.258;12.840;2023-06-22T15:37:54;37.10;50.60
7461;DHT22;6757;52.258;12.840;2023-06-22T15:40:21;37.10;50.50
7461;DHT22;6757;52.258;12.840;2023-06-22T15:42:49;37.00;50.60
7461;DHT22;6757;52.258;12.840;2023-06-22T15:45:18;36.90;50.90
7461;DHT22;6757;52.258;12.840;2023-06-22T15:47:45;36.50;51.00
7461;DHT22;6757;52.258;12.840;2023-06-22T15:50:12;36.30;51.40
7461;DHT22;6757;52.258;12.840;2023-06-22T15:52:39;36.10;51.60